sensor_id;sensor_type;location;lat;lon;timestamp;P1;durP1;ratioP1;P2;durP2;ratioP2
48040;SDS011;33815;48.386;11.738;2023-02-28T00:01:36;4.50;;;3.53;;
48040;SDS011;33815;48.386;11.738;2023-02-28T00:04:01;4.75;;;3.47;;
48040;SDS011;33815;48.386;11.738;2023-02-28T00:06:26;4.63;;;3.25;;
48040;SDS011;33815;48.386;11.738;2023-02-28T00:08:52;3.33;;;2.97;;
48040;SDS011;33815;48.386;11.738;2023-02-28T00:11:17;4.72;;;3.58;;
48040;SDS011;33815;48.386;11.738;2023-02-28T00:13:44;4.63;;;3.00;;
48040;SDS011;33815;48.386;11.738;2023-02-28T00:16:12;3.88;;;3.22;;
48040;SDS011;33815;48.386;11.738;2023-02-28T00:18:40;6.93;;;3.83;;
48040;SDS011;33815;48.386;11.738;2023-02-28T00:21:05;3.65;;;3.30;;
48040;SDS011;33815;48.386;11.738;2023-02-28T00:23:31;4.18;;;3.60;;
48040;SDS011;33815;48.386;11.738;2023-02-28T00:25:57;5.32;;;3.60;;
48040;SDS011;33815;48.386;11.738;2023-02-28T00:28:22;5.45;;;3.60;;
48040;SDS011;33815;48.386;11.738;2023-02-28T00:30:48;3.72;;;3.42;;
48040;SDS011;33815;48.386;11.738;2023-02-28T00:33:13;4.82;;;2.97;;
48040;SDS011;33815;48.386;11.738;2023-02-28T00:35:39;4.82;;;3.28;;
48040;SDS011;33815;48.386;11.738;2023-02-28T00:38:04;5.63;;;3.20;;
48040;SDS011;33815;48.386;11.738;2023-02-28T00:40:29;5.70;;;4.07;;
48040;SDS011;33815;48.386;11.738;2023-02-28T00:42:55;3.85;;;3.15;;
48040;SDS011;33815;48.386;11.738;2023-02-28T00:45:20;4.53;;;3.40;;
48040;SDS011;33815;48.386;11.738;2023-02-28T00:47:45;5.32;;;3.67;;
48040;SDS011;33815;48.386;11.738;2023-02-28T00:50:14;6.55;;;2.88;;
48040;SDS011;33815;48.386;11.738;2023-02-28T00:52:41;5.00;;;3.50;;
48040;SDS011;33815;48.386;11.738;2023-02-28T00:55:06;3.83;;;3.53;;
48040;SDS011;33815;48.386;11.738;2023-02-28T00:57:33;3.70;;;3.28;;
48040;SDS011;33815;48.386;11.738;2023-02-28T00:59:58;5.38;;;4.00;;
48040;SDS011;33815;48.386;11.738;2023-02-28T01:02:23;5.75;;;3.35;;
48040;SDS011;33815;48.386;11.738;2023-02-28T01:04:48;5.20;;;3.50;;
48040;SDS011;33815;48.386;11.738;2023-02-28T01:07:14;4.57;;;3.10;;
48040;SDS011;33815;48.386;11.738;2023-02-28T01:09:39;4.55;;;3.53;;
48040;SDS011;33815;48.386;11.738;2023-02-28T01:12:05;7.40;;;4.57;;
48040;SDS011;33815;48.386;11.738;2023-02-28T01:14:32;4.68;;;3.60;;
48040;SDS011;33815;48.386;11.738;2023-02-28T01:16:57;5.07;;;3.80;;
48040;SDS011;33815;48.386;11.738;2023-02-28T01:19:22;4.72;;;3.78;;
48040;SDS011;33815;48.386;11.738;2023-02-28T01:21:47;3.85;;;3.55;;
48040;SDS011;33815;48.386;11.738;2023-02-28T01:24:13;5.60;;;3.63;;
48040;SDS011;33815;48.386;11.738;2023-02-28T01:26:38;5.47;;;3.95;;
48040;SDS011;33815;48.386;11.738;2023-02-28T01:29:03;4.63;;;3.42;;
48040;SDS011;33815;48.386;11.738;2023-02-28T01:31:28;4.78;;;3.88;;
48040;SDS011;33815;48.386;11.738;2023-02-28T01:33:54;5.05;;;3.63;;
48040;SDS011;33815;48.386;11.738;2023-02-28T01:36:20;6.30;;;3.33;;
48040;SDS011;33815;48.386;11.738;2023-02-28T01:38:47;7.18;;;3.70;;
48040;SDS011;33815;48.386;11.738;2023-02-28T01:41:15;5.18;;;4.10;;
48040;SDS011;33815;48.386;11.738;2023-02-28T01:46:10;5.17;;;3.30;;
48040;SDS011;33815;48.386;11.738;2023-02-28T01:48:38;6.53;;;3.60;;
48040;SDS011;33815;48.386;11.738;2023-02-28T01:51:11;5.45;;;3.35;;
48040;SDS011;33815;48.386;11.738;2023-02-28T01:53:42;4.53;;;3.80;;
48040;SDS011;33815;48.386;11.738;2023-02-28T01:56:11;5.53;;;3.70;;
48040;SDS011;33815;48.386;11.738;2023-02-28T01:58:39;7.50;;;4.18;;
48040;SDS011;33815;48.386;11.738;2023-02-28T02:01:04;4.18;;;3.50;;
48040;SDS011;33815;48.386;11.738;2023-02-28T02:03:30;5.13;;;3.92;;
48040;SDS011;33815;48.386;11.738;2023-02-28T02:05:56;3.70;;;3.33;;
48040;SDS011;33815;48.386;11.738;2023-02-28T02:08:25;6.15;;;4.13;;
48040;SDS011;33815;48.386;11.738;2023-02-28T02:10:57;3.58;;;2.95;;
48040;SDS011;33815;48.386;11.738;2023-02-28T02:13:28;5.97;;;4.50;;
48040;SDS011;33815;48.386;11.738;2023-02-28T02:18:52;4.00;;;3.60;;
48040;SDS011;33815;48.386;11.738;2023-02-28T02:27:24;5.38;;;4.05;;
48040;SDS011;33815;48.386;11.738;2023-02-28T02:38:09;9.02;;;4.18;;
48040;SDS011;33815;48.386;11.738;2023-02-28T02:43:36;6.53;;;4.05;;
48040;SDS011;33815;48.386;11.738;2023-02-28T02:46:08;4.03;;;3.63;;
48040;SDS011;33815;48.386;11.738;2023-02-28T02:48:37;6.57;;;4.65;;
48040;SDS011;33815;48.386;11.738;2023-02-28T02:51:07;6.55;;;4.53;;
48040;SDS011;33815;48.386;11.738;2023-02-28T02:53:40;5.75;;;4.32;;
48040;SDS011;33815;48.386;11.738;2023-02-28T02:56:11;6.40;;;3.80;;
48040;SDS011;33815;48.386;11.738;2023-02-28T02:58:38;4.80;;;3.83;;
48040;SDS011;33815;48.386;11.738;2023-02-28T03:01:07;7.43;;;4.60;;
48040;SDS011;33815;48.386;11.738;2023-02-28T03:03:35;6.32;;;4.30;;
48040;SDS011;33815;48.386;11.738;2023-02-28T03:06:01;8.13;;;4.55;;
48040;SDS011;33815;48.386;11.738;2023-02-28T03:08:28;6.97;;;4.70;;
48040;SDS011;33815;48.386;11.738;2023-02-28T03:11:02;7.57;;;5.40;;
48040;SDS011;33815;48.386;11.738;2023-02-28T03:13:38;5.78;;;4.60;;
48040;SDS011;33815;48.386;11.738;2023-02-28T03:16:23;6.15;;;4.82;;
48040;SDS011;33815;48.386;11.738;2023-02-28T03:27:36;5.75;;;4.28;;
48040;SDS011;33815;48.386;11.738;2023-02-28T03:30:10;5.82;;;4.57;;
48040;SDS011;33815;48.386;11.738;2023-02-28T03:33:09;7.32;;;4.63;;
48040;SDS011;33815;48.386;11.738;2023-02-28T03:35:43;5.45;;;4.53;;
48040;SDS011;33815;48.386;11.738;2023-02-28T03:38:19;5.93;;;4.30;;
48040;SDS011;33815;48.386;11.738;2023-02-28T03:40:52;6.00;;;4.40;;
48040;SDS011;33815;48.386;11.738;2023-02-28T03:43:26;6.00;;;4.43;;
48040;SDS011;33815;48.386;11.738;2023-02-28T03:45:55;7.63;;;4.63;;
48040;SDS011;33815;48.386;11.738;2023-02-28T03:48:40;6.18;;;4.22;;
48040;SDS011;33815;48.386;11.738;2023-02-28T03:51:13;9.85;;;5.43;;
48040;SDS011;33815;48.386;11.738;2023-02-28T03:53:59;7.93;;;4.93;;
48040;SDS011;33815;48.386;11.738;2023-02-28T04:01:45;7.65;;;5.38;;
48040;SDS011;33815;48.386;11.738;2023-02-28T04:04:13;8.38;;;5.32;;
48040;SDS011;33815;48.386;11.738;2023-02-28T04:06:40;10.48;;;5.00;;
48040;SDS011;33815;48.386;11.738;2023-02-28T04:09:06;8.85;;;5.25;;
48040;SDS011;33815;48.386;11.738;2023-02-28T04:11:40;7.53;;;5.70;;
48040;SDS011;33815;48.386;11.738;2023-02-28T04:14:07;6.55;;;5.60;;
48040;SDS011;33815;48.386;11.738;2023-02-28T04:16:34;6.97;;;5.40;;
48040;SDS011;33815;48.386;11.738;2023-02-28T04:19:02;7.78;;;5.35;;
48040;SDS011;33815;48.386;11.738;2023-02-28T04:21:30;9.02;;;5.05;;
48040;SDS011;33815;48.386;11.738;2023-02-28T04:24:00;13.60;;;5.50;;
48040;SDS011;33815;48.386;11.738;2023-02-28T04:26:30;6.72;;;4.95;;
48040;SDS011;33815;48.386;11.738;2023-02-28T04:28:59;8.13;;;5.43;;
48040;SDS011;33815;48.386;11.738;2023-02-28T04:31:25;8.68;;;5.20;;
48040;SDS011;33815;48.386;11.738;2023-02-28T04:33:50;8.55;;;5.85;;
48040;SDS011;33815;48.386;11.738;2023-02-28T04:36:16;9.75;;;5.75;;
48040;SDS011;33815;48.386;11.738;2023-02-28T04:38:42;8.65;;;5.80;;
48040;SDS011;33815;48.386;11.738;2023-02-28T04:41:09;10.48;;;6.45;;
48040;SDS011;33815;48.386;11.738;2023-02-28T04:43:34;12.25;;;5.38;;
48040;SDS011;33815;48.386;11.738;2023-02-28T04:46:00;7.57;;;5.57;;
48040;SDS011;33815;48.386;11.738;2023-02-28T04:48:27;8.52;;;5.60;;
48040;SDS011;33815;48.386;11.738;2023-02-28T04:50:54;8.10;;;5.30;;
48040;SDS011;33815;48.386;11.738;2023-02-28T04:53:19;8.02;;;5.82;;
48040;SDS011;33815;48.386;11.738;2023-02-28T04:55:45;9.55;;;6.38;;
48040;SDS011;33815;48.386;11.738;2023-02-28T04:58:10;7.15;;;5.38;;
48040;SDS011;33815;48.386;11.738;2023-02-28T05:00:36;7.70;;;5.13;;
48040;SDS011;33815;48.386;11.738;2023-02-28T05:03:01;13.27;;;5.40;;
48040;SDS011;33815;48.386;11.738;2023-02-28T05:05:26;9.02;;;6.35;;
48040;SDS011;33815;48.386;11.738;2023-02-28T05:07:52;14.50;;;6.32;;
48040;SDS011;33815;48.386;11.738;2023-02-28T05:10:18;9.95;;;6.22;;
48040;SDS011;33815;48.386;11.738;2023-02-28T05:12:44;8.80;;;5.80;;
48040;SDS011;33815;48.386;11.738;2023-02-28T05:15:11;8.07;;;6.15;;
48040;SDS011;33815;48.386;11.738;2023-02-28T05:17:38;9.57;;;6.20;;
48040;SDS011;33815;48.386;11.738;2023-02-28T05:20:03;8.57;;;5.82;;
48040;SDS011;33815;48.386;11.738;2023-02-28T05:22:29;9.05;;;5.32;;
48040;SDS011;33815;48.386;11.738;2023-02-28T05:24:55;9.02;;;6.28;;
48040;SDS011;33815;48.386;11.738;2023-02-28T05:27:20;10.18;;;6.00;;
48040;SDS011;33815;48.386;11.738;2023-02-28T05:29:45;9.82;;;6.18;;
48040;SDS011;33815;48.386;11.738;2023-02-28T05:32:11;7.78;;;6.03;;
48040;SDS011;33815;48.386;11.738;2023-02-28T05:34:40;8.35;;;5.60;;
48040;SDS011;33815;48.386;11.738;2023-02-28T05:37:07;10.10;;;6.20;;
48040;SDS011;33815;48.386;11.738;2023-02-28T05:39:36;9.98;;;6.38;;
48040;SDS011;33815;48.386;11.738;2023-02-28T05:42:02;11.80;;;6.32;;
48040;SDS011;33815;48.386;11.738;2023-02-28T05:44:27;11.73;;;7.03;;
48040;SDS011;33815;48.386;11.738;2023-02-28T05:46:53;9.52;;;6.63;;
48040;SDS011;33815;48.386;11.738;2023-02-28T05:49:18;8.73;;;6.65;;
48040;SDS011;33815;48.386;11.738;2023-02-28T05:51:43;8.73;;;6.47;;
48040;SDS011;33815;48.386;11.738;2023-02-28T05:54:08;12.25;;;6.75;;
48040;SDS011;33815;48.386;11.738;2023-02-28T05:56:34;10.30;;;6.70;;
48040;SDS011;33815;48.386;11.738;2023-02-28T05:59:00;16.35;;;7.13;;
48040;SDS011;33815;48.386;11.738;2023-02-28T06:01:35;9.00;;;6.20;;
48040;SDS011;33815;48.386;11.738;2023-02-28T06:04:06;11.20;;;6.25;;
48040;SDS011;33815;48.386;11.738;2023-02-28T06:06:33;14.07;;;7.30;;
48040;SDS011;33815;48.386;11.738;2023-02-28T06:09:02;10.18;;;6.55;;
48040;SDS011;33815;48.386;11.738;2023-02-28T06:11:28;11.85;;;8.02;;
48040;SDS011;33815;48.386;11.738;2023-02-28T06:13:54;11.80;;;7.20;;
48040;SDS011;33815;48.386;11.738;2023-02-28T06:16:24;10.32;;;6.47;;
48040;SDS011;33815;48.386;11.738;2023-02-28T06:18:51;9.18;;;6.55;;
48040;SDS011;33815;48.386;11.738;2023-02-28T06:21:17;13.90;;;7.07;;
48040;SDS011;33815;48.386;11.738;2023-02-28T06:23:43;12.10;;;7.07;;
48040;SDS011;33815;48.386;11.738;2023-02-28T06:26:08;10.82;;;7.00;;
48040;SDS011;33815;48.386;11.738;2023-02-28T06:28:34;9.30;;;6.50;;
48040;SDS011;33815;48.386;11.738;2023-02-28T06:30:59;10.70;;;7.00;;
48040;SDS011;33815;48.386;11.738;2023-02-28T06:33:24;14.98;;;7.20;;
48040;SDS011;33815;48.386;11.738;2023-02-28T06:35:50;13.85;;;7.15;;
48040;SDS011;33815;48.386;11.738;2023-02-28T06:38:16;11.68;;;7.15;;
48040;SDS011;33815;48.386;11.738;2023-02-28T06:40:43;10.95;;;7.43;;
48040;SDS011;33815;48.386;11.738;2023-02-28T06:43:08;10.18;;;7.43;;
48040;SDS011;33815;48.386;11.738;2023-02-28T06:45:34;12.82;;;7.65;;
48040;SDS011;33815;48.386;11.738;2023-02-28T06:47:59;10.85;;;7.28;;
48040;SDS011;33815;48.386;11.738;2023-02-28T06:50:25;11.70;;;7.05;;
48040;SDS011;33815;48.386;11.738;2023-02-28T06:52:50;11.15;;;7.75;;
48040;SDS011;33815;48.386;11.738;2023-02-28T06:55:18;12.02;;;7.55;;
48040;SDS011;33815;48.386;11.738;2023-02-28T06:57:44;10.10;;;7.28;;
48040;SDS011;33815;48.386;11.738;2023-02-28T07:00:09;11.30;;;6.47;;
48040;SDS011;33815;48.386;11.738;2023-02-28T07:02:35;12.10;;;7.38;;
48040;SDS011;33815;48.386;11.738;2023-02-28T07:05:02;13.07;;;8.02;;
48040;SDS011;33815;48.386;11.738;2023-02-28T07:07:28;13.70;;;7.82;;
48040;SDS011;33815;48.386;11.738;2023-02-28T07:09:53;12.40;;;6.97;;
48040;SDS011;33815;48.386;11.738;2023-02-28T07:12:18;11.13;;;7.72;;
48040;SDS011;33815;48.386;11.738;2023-02-28T07:14:44;10.82;;;7.53;;
48040;SDS011;33815;48.386;11.738;2023-02-28T07:17:09;12.38;;;6.82;;
48040;SDS011;33815;48.386;11.738;2023-02-28T07:19:37;11.85;;;8.27;;
48040;SDS011;33815;48.386;11.738;2023-02-28T07:22:03;11.55;;;7.65;;
48040;SDS011;33815;48.386;11.738;2023-02-28T07:24:29;14.05;;;7.63;;
48040;SDS011;33815;48.386;11.738;2023-02-28T07:26:54;11.80;;;7.40;;
48040;SDS011;33815;48.386;11.738;2023-02-28T07:29:20;12.45;;;8.48;;
48040;SDS011;33815;48.386;11.738;2023-02-28T07:31:45;12.45;;;7.15;;
48040;SDS011;33815;48.386;11.738;2023-02-28T07:34:11;12.85;;;7.60;;
48040;SDS011;33815;48.386;11.738;2023-02-28T07:36:37;12.82;;;7.95;;
48040;SDS011;33815;48.386;11.738;2023-02-28T07:39:02;10.32;;;6.95;;
48040;SDS011;33815;48.386;11.738;2023-02-28T07:41:29;12.32;;;7.95;;
48040;SDS011;33815;48.386;11.738;2023-02-28T07:43:54;10.20;;;6.43;;
48040;SDS011;33815;48.386;11.738;2023-02-28T07:46:22;11.63;;;7.43;;
48040;SDS011;33815;48.386;11.738;2023-02-28T07:48:47;10.45;;;6.90;;
48040;SDS011;33815;48.386;11.738;2023-02-28T07:51:13;11.02;;;7.32;;
48040;SDS011;33815;48.386;11.738;2023-02-28T07:53:38;13.45;;;7.50;;
48040;SDS011;33815;48.386;11.738;2023-02-28T07:56:04;11.02;;;6.95;;
48040;SDS011;33815;48.386;11.738;2023-02-28T07:58:30;11.57;;;7.13;;
48040;SDS011;33815;48.386;11.738;2023-02-28T08:00:55;10.98;;;7.20;;
48040;SDS011;33815;48.386;11.738;2023-02-28T08:03:22;10.05;;;6.68;;
48040;SDS011;33815;48.386;11.738;2023-02-28T08:05:48;11.02;;;6.60;;
48040;SDS011;33815;48.386;11.738;2023-02-28T08:08:15;8.93;;;6.18;;
48040;SDS011;33815;48.386;11.738;2023-02-28T08:10:42;11.07;;;6.05;;
48040;SDS011;33815;48.386;11.738;2023-02-28T08:13:07;13.02;;;6.85;;
48040;SDS011;33815;48.386;11.738;2023-02-28T08:15:33;11.45;;;7.03;;
48040;SDS011;33815;48.386;11.738;2023-02-28T08:17:58;10.60;;;7.47;;
48040;SDS011;33815;48.386;11.738;2023-02-28T08:20:24;10.52;;;7.38;;
48040;SDS011;33815;48.386;11.738;2023-02-28T08:22:50;9.73;;;7.03;;
48040;SDS011;33815;48.386;11.738;2023-02-28T08:25:15;12.50;;;6.82;;
48040;SDS011;33815;48.386;11.738;2023-02-28T08:27:41;10.45;;;7.28;;
48040;SDS011;33815;48.386;11.738;2023-02-28T08:30:07;10.05;;;6.78;;
48040;SDS011;33815;48.386;11.738;2023-02-28T08:32:34;9.23;;;6.13;;
48040;SDS011;33815;48.386;11.738;2023-02-28T08:34:59;9.60;;;6.15;;
48040;SDS011;33815;48.386;11.738;2023-02-28T08:37:25;13.57;;;6.72;;
48040;SDS011;33815;48.386;11.738;2023-02-28T08:39:50;14.68;;;6.80;;
48040;SDS011;33815;48.386;11.738;2023-02-28T08:42:16;12.23;;;7.28;;
48040;SDS011;33815;48.386;11.738;2023-02-28T08:44:41;9.95;;;6.53;;
48040;SDS011;33815;48.386;11.738;2023-02-28T08:47:06;9.98;;;6.68;;
48040;SDS011;33815;48.386;11.738;2023-02-28T08:49:32;14.95;;;6.93;;
48040;SDS011;33815;48.386;11.738;2023-02-28T08:51:57;12.88;;;7.25;;
48040;SDS011;33815;48.386;11.738;2023-02-28T08:54:23;14.68;;;7.10;;
48040;SDS011;33815;48.386;11.738;2023-02-28T08:56:48;13.88;;;7.22;;
48040;SDS011;33815;48.386;11.738;2023-02-28T08:59:14;9.82;;;6.22;;
48040;SDS011;33815;48.386;11.738;2023-02-28T09:01:39;10.10;;;6.80;;
48040;SDS011;33815;48.386;11.738;2023-02-28T09:04:06;10.43;;;6.97;;
48040;SDS011;33815;48.386;11.738;2023-02-28T09:06:33;10.50;;;6.68;;
48040;SDS011;33815;48.386;11.738;2023-02-28T09:08:59;11.40;;;7.55;;
48040;SDS011;33815;48.386;11.738;2023-02-28T09:11:25;9.07;;;6.55;;
48040;SDS011;33815;48.386;11.738;2023-02-28T09:13:51;11.68;;;7.68;;
48040;SDS011;33815;48.386;11.738;2023-02-28T09:16:17;9.40;;;6.20;;
48040;SDS011;33815;48.386;11.738;2023-02-28T09:18:43;10.55;;;6.90;;
48040;SDS011;33815;48.386;11.738;2023-02-28T09:21:10;10.90;;;6.90;;
48040;SDS011;33815;48.386;11.738;2023-02-28T09:23:39;9.90;;;6.05;;
48040;SDS011;33815;48.386;11.738;2023-02-28T09:26:05;10.85;;;6.70;;
48040;SDS011;33815;48.386;11.738;2023-02-28T09:28:31;10.32;;;6.43;;
48040;SDS011;33815;48.386;11.738;2023-02-28T09:30:56;11.93;;;7.72;;
48040;SDS011;33815;48.386;11.738;2023-02-28T09:33:25;8.93;;;6.13;;
48040;SDS011;33815;48.386;11.738;2023-02-28T09:35:53;7.93;;;5.28;;
48040;SDS011;33815;48.386;11.738;2023-02-28T09:38:23;10.98;;;7.22;;
48040;SDS011;33815;48.386;11.738;2023-02-28T09:40:53;11.98;;;7.03;;
48040;SDS011;33815;48.386;11.738;2023-02-28T09:43:22;10.45;;;7.18;;
48040;SDS011;33815;48.386;11.738;2023-02-28T09:45:58;12.68;;;7.13;;
48040;SDS011;33815;48.386;11.738;2023-02-28T09:48:32;11.55;;;7.03;;
48040;SDS011;33815;48.386;11.738;2023-02-28T09:56:46;11.85;;;6.28;;
48040;SDS011;33815;48.386;11.738;2023-02-28T09:59:38;12.98;;;7.63;;
48040;SDS011;33815;48.386;11.738;2023-02-28T10:05:11;10.43;;;7.25;;
48040;SDS011;33815;48.386;11.738;2023-02-28T10:10:45;9.15;;;6.32;;
48040;SDS011;33815;48.386;11.738;2023-02-28T10:15:51;12.05;;;7.38;;
48040;SDS011;33815;48.386;11.738;2023-02-28T10:18:23;11.07;;;7.15;;
48040;SDS011;33815;48.386;11.738;2023-02-28T10:20:52;9.90;;;6.88;;
48040;SDS011;33815;48.386;11.738;2023-02-28T10:23:21;9.60;;;6.88;;
48040;SDS011;33815;48.386;11.738;2023-02-28T10:25:55;9.88;;;7.28;;
48040;SDS011;33815;48.386;11.738;2023-02-28T10:28:24;10.32;;;7.10;;
48040;SDS011;33815;48.386;11.738;2023-02-28T10:30:52;9.88;;;6.97;;
48040;SDS011;33815;48.386;11.738;2023-02-28T10:33:20;10.40;;;6.78;;
48040;SDS011;33815;48.386;11.738;2023-02-28T10:35:52;11.80;;;7.28;;
48040;SDS011;33815;48.386;11.738;2023-02-28T10:38:23;9.02;;;6.07;;
48040;SDS011;33815;48.386;11.738;2023-02-28T10:41:06;13.45;;;7.25;;
48040;SDS011;33815;48.386;11.738;2023-02-28T10:43:40;9.20;;;6.28;;
48040;SDS011;33815;48.386;11.738;2023-02-28T10:48:38;12.15;;;6.68;;
48040;SDS011;33815;48.386;11.738;2023-02-28T10:51:05;8.70;;;6.60;;
48040;SDS011;33815;48.386;11.738;2023-02-28T10:53:34;11.07;;;6.32;;
48040;SDS011;33815;48.386;11.738;2023-02-28T10:58:46;10.43;;;6.85;;
48040;SDS011;33815;48.386;11.738;2023-02-28T11:01:45;10.80;;;7.45;;
48040;SDS011;33815;48.386;11.738;2023-02-28T11:07:05;10.60;;;6.90;;
48040;SDS011;33815;48.386;11.738;2023-02-28T11:09:41;9.98;;;6.88;;
48040;SDS011;33815;48.386;11.738;2023-02-28T11:12:23;10.40;;;6.60;;
48040;SDS011;33815;48.386;11.738;2023-02-28T11:15:39;9.15;;;6.65;;
48040;SDS011;33815;48.386;11.738;2023-02-28T11:17:45;8.13;;;6.45;;
48040;SDS011;33815;48.386;11.738;2023-02-28T11:20:21;11.80;;;6.78;;
48040;SDS011;33815;48.386;11.738;2023-02-28T11:22:49;21.98;;;8.15;;
48040;SDS011;33815;48.386;11.738;2023-02-28T11:25:24;10.20;;;6.85;;
48040;SDS011;33815;48.386;11.738;2023-02-28T11:27:57;12.07;;;7.28;;
48040;SDS011;33815;48.386;11.738;2023-02-28T11:30:27;12.02;;;7.32;;
48040;SDS011;33815;48.386;11.738;2023-02-28T11:32:56;8.88;;;6.65;;
48040;SDS011;33815;48.386;11.738;2023-02-28T11:35:29;10.05;;;6.90;;
48040;SDS011;33815;48.386;11.738;2023-02-28T11:37:59;10.48;;;7.35;;
48040;SDS011;33815;48.386;11.738;2023-02-28T11:40:36;9.65;;;6.70;;
48040;SDS011;33815;48.386;11.738;2023-02-28T11:43:30;10.00;;;6.93;;
48040;SDS011;33815;48.386;11.738;2023-02-28T11:46:14;10.73;;;7.15;;
48040;SDS011;33815;48.386;11.738;2023-02-28T11:51:50;10.60;;;6.32;;
48040;SDS011;33815;48.386;11.738;2023-02-28T11:54:46;12.45;;;7.18;;
48040;SDS011;33815;48.386;11.738;2023-02-28T12:02:59;10.15;;;6.95;;
48040;SDS011;33815;48.386;11.738;2023-02-28T12:25:30;13.32;;;9.38;;
48040;SDS011;33815;48.386;11.738;2023-02-28T12:27:40;33.67;;;16.60;;
48040;SDS011;33815;48.386;11.738;2023-02-28T12:32:55;10.57;;;7.35;;
48040;SDS011;33815;48.386;11.738;2023-02-28T12:35:38;10.85;;;7.25;;
48040;SDS011;33815;48.386;11.738;2023-02-28T12:38:28;10.93;;;7.20;;
48040;SDS011;33815;48.386;11.738;2023-02-28T12:41:34;10.80;;;6.80;;
48040;SDS011;33815;48.386;11.738;2023-02-28T12:44:13;9.80;;;6.72;;
48040;SDS011;33815;48.386;11.738;2023-02-28T12:46:44;11.57;;;6.88;;
48040;SDS011;33815;48.386;11.738;2023-02-28T12:49:17;9.52;;;7.03;;
48040;SDS011;33815;48.386;11.738;2023-02-28T12:51:46;8.55;;;6.80;;
48040;SDS011;33815;48.386;11.738;2023-02-28T12:59:59;10.75;;;7.18;;
48040;SDS011;33815;48.386;11.738;2023-02-28T13:02:33;8.40;;;6.50;;
48040;SDS011;33815;48.386;11.738;2023-02-28T13:08:11;9.38;;;6.82;;
48040;SDS011;33815;48.386;11.738;2023-02-28T13:10:46;10.70;;;6.60;;
48040;SDS011;33815;48.386;11.738;2023-02-28T13:13:15;11.18;;;6.78;;
48040;SDS011;33815;48.386;11.738;2023-02-28T13:15:59;9.73;;;7.38;;
48040;SDS011;33815;48.386;11.738;2023-02-28T13:18:36;9.27;;;6.93;;
48040;SDS011;33815;48.386;11.738;2023-02-28T13:21:04;10.15;;;6.95;;
48040;SDS011;33815;48.386;11.738;2023-02-28T13:23:36;12.90;;;7.63;;
48040;SDS011;33815;48.386;11.738;2023-02-28T13:26:04;10.05;;;6.72;;
48040;SDS011;33815;48.386;11.738;2023-02-28T13:28:56;10.97;;;7.33;;
48040;SDS011;33815;48.386;11.738;2023-02-28T13:31:25;10.63;;;7.43;;
48040;SDS011;33815;48.386;11.738;2023-02-28T13:38:45;10.27;;;7.10;;
48040;SDS011;33815;48.386;11.738;2023-02-28T13:43:58;11.05;;;7.30;;
48040;SDS011;33815;48.386;11.738;2023-02-28T13:51:50;8.98;;;5.30;;
48040;SDS011;33815;48.386;11.738;2023-02-28T14:00:15;9.82;;;7.20;;
48040;SDS011;33815;48.386;11.738;2023-02-28T14:03:00;10.60;;;7.57;;
48040;SDS011;33815;48.386;11.738;2023-02-28T14:06:37;9.65;;;7.43;;
48040;SDS011;33815;48.386;11.738;2023-02-28T14:08:50;11.73;;;7.05;;
48040;SDS011;33815;48.386;11.738;2023-02-28T14:11:37;9.68;;;6.88;;
48040;SDS011;33815;48.386;11.738;2023-02-28T14:14:05;14.40;;;7.93;;
48040;SDS011;33815;48.386;11.738;2023-02-28T14:16:43;12.55;;;7.60;;
48040;SDS011;33815;48.386;11.738;2023-02-28T14:19:21;11.45;;;7.35;;
48040;SDS011;33815;48.386;11.738;2023-02-28T14:22:37;11.85;;;7.50;;
48040;SDS011;33815;48.386;11.738;2023-02-28T14:30:26;11.10;;;7.63;;
48040;SDS011;33815;48.386;11.738;2023-02-28T14:41:18;8.90;;;6.32;;
48040;SDS011;33815;48.386;11.738;2023-02-28T14:44:29;10.73;;;7.38;;
48040;SDS011;33815;48.386;11.738;2023-02-28T14:46:43;10.75;;;6.88;;
48040;SDS011;33815;48.386;11.738;2023-02-28T14:49:13;8.63;;;6.43;;
48040;SDS011;33815;48.386;11.738;2023-02-28T14:51:43;8.80;;;6.75;;
48040;SDS011;33815;48.386;11.738;2023-02-28T14:54:12;10.18;;;7.28;;
48040;SDS011;33815;48.386;11.738;2023-02-28T14:56:40;10.75;;;7.65;;
48040;SDS011;33815;48.386;11.738;2023-02-28T14:59:20;10.25;;;7.07;;
48040;SDS011;33815;48.386;11.738;2023-02-28T15:01:49;13.30;;;8.10;;
48040;SDS011;33815;48.386;11.738;2023-02-28T15:04:21;9.90;;;7.28;;
48040;SDS011;33815;48.386;11.738;2023-02-28T15:07:06;13.43;;;7.65;;
48040;SDS011;33815;48.386;11.738;2023-02-28T15:09:35;13.05;;;8.18;;
48040;SDS011;33815;48.386;11.738;2023-02-28T15:12:01;9.90;;;6.95;;
48040;SDS011;33815;48.386;11.738;2023-02-28T15:14:26;12.00;;;7.88;;
48040;SDS011;33815;48.386;11.738;2023-02-28T15:16:55;12.40;;;7.43;;
48040;SDS011;33815;48.386;11.738;2023-02-28T15:19:29;13.02;;;6.45;;
48040;SDS011;33815;48.386;11.738;2023-02-28T15:22:08;11.68;;;7.53;;
48040;SDS011;33815;48.386;11.738;2023-02-28T15:24:43;13.02;;;7.82;;
48040;SDS011;33815;48.386;11.738;2023-02-28T15:27:20;12.85;;;8.13;;
48040;SDS011;33815;48.386;11.738;2023-02-28T15:29:48;11.38;;;7.97;;
48040;SDS011;33815;48.386;11.738;2023-02-28T15:32:30;11.15;;;6.80;;
48040;SDS011;33815;48.386;11.738;2023-02-28T15:34:57;9.55;;;7.50;;
48040;SDS011;33815;48.386;11.738;2023-02-28T15:40:04;13.65;;;7.60;;
48040;SDS011;33815;48.386;11.738;2023-02-28T15:42:30;16.30;;;8.23;;
48040;SDS011;33815;48.386;11.738;2023-02-28T15:44:56;16.02;;;8.35;;
48040;SDS011;33815;48.386;11.738;2023-02-28T15:47:22;11.98;;;8.48;;
48040;SDS011;33815;48.386;11.738;2023-02-28T15:52:19;12.43;;;7.90;;
48040;SDS011;33815;48.386;11.738;2023-02-28T15:54:58;17.20;;;8.80;;
48040;SDS011;33815;48.386;11.738;2023-02-28T15:57:32;13.57;;;8.43;;
48040;SDS011;33815;48.386;11.738;2023-02-28T16:00:00;12.70;;;9.02;;
48040;SDS011;33815;48.386;11.738;2023-02-28T16:02:33;9.82;;;7.72;;
48040;SDS011;33815;48.386;11.738;2023-02-28T16:05:02;10.75;;;8.10;;
48040;SDS011;33815;48.386;11.738;2023-02-28T16:07:34;11.63;;;8.18;;
48040;SDS011;33815;48.386;11.738;2023-02-28T16:10:08;12.30;;;8.77;;
48040;SDS011;33815;48.386;11.738;2023-02-28T16:12:36;13.43;;;8.20;;
48040;SDS011;33815;48.386;11.738;2023-02-28T16:15:06;14.82;;;9.00;;
48040;SDS011;33815;48.386;11.738;2023-02-28T16:17:34;15.45;;;8.38;;
48040;SDS011;33815;48.386;11.738;2023-02-28T16:20:16;12.38;;;8.70;;
48040;SDS011;33815;48.386;11.738;2023-02-28T16:22:46;11.93;;;7.85;;
48040;SDS011;33815;48.386;11.738;2023-02-28T16:25:15;11.13;;;7.75;;
48040;SDS011;33815;48.386;11.738;2023-02-28T16:27:42;13.57;;;7.93;;
48040;SDS011;33815;48.386;11.738;2023-02-28T16:30:25;14.40;;;7.82;;
48040;SDS011;33815;48.386;11.738;2023-02-28T16:32:52;15.18;;;7.95;;
48040;SDS011;33815;48.386;11.738;2023-02-28T16:35:20;13.82;;;8.45;;
48040;SDS011;33815;48.386;11.738;2023-02-28T16:37:46;13.10;;;8.55;;
48040;SDS011;33815;48.386;11.738;2023-02-28T16:40:15;15.35;;;8.05;;
48040;SDS011;33815;48.386;11.738;2023-02-28T16:42:43;13.02;;;8.85;;
48040;SDS011;33815;48.386;11.738;2023-02-28T16:45:17;18.10;;;8.82;;
48040;SDS011;33815;48.386;11.738;2023-02-28T16:47:45;13.50;;;9.20;;
48040;SDS011;33815;48.386;11.738;2023-02-28T16:50:14;12.95;;;8.27;;
48040;SDS011;33815;48.386;11.738;2023-02-28T16:52:41;14.75;;;9.15;;
48040;SDS011;33815;48.386;11.738;2023-02-28T16:55:06;13.15;;;8.85;;
48040;SDS011;33815;48.386;11.738;2023-02-28T16:57:31;14.45;;;8.30;;
48040;SDS011;33815;48.386;11.738;2023-02-28T16:59:57;13.35;;;7.80;;